createdAt,value
2023-11-23T00:00:12.476Z,100.00
2023-11-23T00:02:42.321Z,100.00
2023-11-23T00:05:10.241Z,100.00
2023-11-23T00:07:36.957Z,100.00
2023-11-23T00:10:05.896Z,100.00
2023-11-23T00:12:32.525Z,100.00
2023-11-23T00:15:01.329Z,100.00
2023-11-23T00:17:28.680Z,100.00
2023-11-23T00:19:55.600Z,100.00
2023-11-23T00:22:22.617Z,100.00
2023-11-23T00:24:49.430Z,100.00
2023-11-23T00:27:16.213Z,100.00
2023-11-23T00:29:43.022Z,100.00
2023-11-23T00:32:09.517Z,100.00
2023-11-23T00:34:36.216Z,100.00
2023-11-23T00:37:02.724Z,100.00
2023-11-23T00:39:29.228Z,100.00
2023-11-23T00:41:55.753Z,100.00
2023-11-23T00:44:22.398Z,100.00
2023-11-23T00:46:49.150Z,100.00
2023-11-23T00:49:15.692Z,100.00
2023-11-23T00:51:43.432Z,100.00
2023-11-23T00:54:09.961Z,100.00
2023-11-23T00:56:38.159Z,100.00
2023-11-23T00:59:04.880Z,100.00
2023-11-23T01:01:31.550Z,100.00
2023-11-23T01:03:58.272Z,100.00
2023-11-23T01:06:24.876Z,100.00
2023-11-23T01:08:51.442Z,100.00
2023-11-23T01:11:17.972Z,100.00
2023-11-23T01:13:44.725Z,100.00
2023-11-23T01:16:11.376Z,100.00
2023-11-23T01:18:39.169Z,100.00
2023-11-23T01:21:06.062Z,100.00
2023-11-23T01:23:32.724Z,100.00
2023-11-23T01:25:59.195Z,100.00
2023-11-23T01:28:25.659Z,100.00
2023-11-23T01:30:52.209Z,100.00
2023-11-23T01:33:19.155Z,100.00
2023-11-23T01:35:45.852Z,100.00
2023-11-23T01:38:12.398Z,100.00
2023-11-23T01:40:39.019Z,100.00
2023-11-23T01:43:12.109Z,100.00
2023-11-23T01:45:39.527Z,100.00
2023-11-23T01:48:06.753Z,100.00
2023-11-23T01:50:35.253Z,100.00
2023-11-23T01:53:04.668Z,100.00
2023-11-23T01:55:31.517Z,100.00
2023-11-23T01:57:59.587Z,100.00
2023-11-23T02:00:26.848Z,100.00
2023-11-23T02:02:53.494Z,100.00
2023-11-23T02:05:23.285Z,100.00
2023-11-23T02:07:49.890Z,100.00
2023-11-23T02:10:16.636Z,100.00
2023-11-23T02:12:44.732Z,100.00
2023-11-23T02:15:11.590Z,100.00
2023-11-23T02:17:38.415Z,100.00
2023-11-23T02:20:10.126Z,100.00
2023-11-23T02:22:37.399Z,100.00
2023-11-23T02:25:07.648Z,100.00
2023-11-23T02:27:37.620Z,100.00
2023-11-23T02:30:07.089Z,100.00
2023-11-23T02:32:36.934Z,100.00
2023-11-23T02:35:04.653Z,100.00
2023-11-23T02:37:31.192Z,100.00
2023-11-23T02:39:57.659Z,100.00
2023-11-23T02:42:24.331Z,100.00
2023-11-23T02:44:51.118Z,100.00
2023-11-23T02:47:17.648Z,100.00
2023-11-23T02:49:44.143Z,100.00
2023-11-23T02:52:10.670Z,100.00
2023-11-23T02:54:37.107Z,100.00
2023-11-23T02:57:03.773Z,100.00
2023-11-23T02:59:30.320Z,100.00
2023-11-23T03:01:56.946Z,100.00
2023-11-23T03:04:23.549Z,100.00
2023-11-23T03:06:50.095Z,100.00
2023-11-23T03:09:20.586Z,100.00
2023-11-23T03:11:47.642Z,100.00
2023-11-23T03:14:14.225Z,100.00
2023-11-23T03:16:42.087Z,100.00
2023-11-23T03:19:09.116Z,100.00
2023-11-23T03:21:35.766Z,100.00
2023-11-23T03:24:02.340Z,100.00
2023-11-23T03:26:28.867Z,100.00
2023-11-23T03:28:55.329Z,100.00
2023-11-23T03:31:22.029Z,100.00
2023-11-23T03:33:48.545Z,100.00
2023-11-23T03:36:15.130Z,100.00
2023-11-23T03:38:41.612Z,100.00
2023-11-23T03:41:08.131Z,100.00
2023-11-23T03:43:34.635Z,100.00
2023-11-23T03:46:01.164Z,100.00
2023-11-23T03:48:27.680Z,100.00
2023-11-23T03:50:54.263Z,100.00
2023-11-23T03:53:20.794Z,100.00
2023-11-23T03:55:47.352Z,100.00
2023-11-23T03:58:13.873Z,100.00
2023-11-23T04:00:41.414Z,100.00
2023-11-23T04:03:08.954Z,100.00
2023-11-23T04:05:35.541Z,100.00
2023-11-23T04:08:02.080Z,100.00
2023-11-23T04:10:28.577Z,100.00
2023-11-23T04:12:55.064Z,100.00
2023-11-23T04:15:21.644Z,100.00
2023-11-23T04:17:48.490Z,100.00
2023-11-23T04:20:15.268Z,100.00
2023-11-23T04:22:42.055Z,100.00
2023-11-23T04:25:09.055Z,100.00
2023-11-23T04:27:35.591Z,100.00
2023-11-23T04:30:02.212Z,100.00
2023-11-23T04:32:28.889Z,100.00
2023-11-23T04:34:55.396Z,100.00
2023-11-23T04:37:25.079Z,100.00
2023-11-23T04:39:52.438Z,100.00
2023-11-23T04:42:19.653Z,100.00
2023-11-23T04:44:46.359Z,100.00
2023-11-23T04:47:12.878Z,100.00
2023-11-23T04:49:39.635Z,100.00
2023-11-23T04:52:06.953Z,100.00
2023-11-23T04:54:33.500Z,100.00
2023-11-23T04:57:00.362Z,100.00
2023-11-23T04:59:28.036Z,100.00
2023-11-23T05:01:55.815Z,100.00
2023-11-23T05:04:22.437Z,100.00
2023-11-23T05:06:49.743Z,100.00
2023-11-23T05:09:16.329Z,100.00
2023-11-23T05:11:42.851Z,100.00
2023-11-23T05:14:09.690Z,100.00
2023-11-23T05:16:36.793Z,100.00
2023-11-23T05:19:03.783Z,100.00
2023-11-23T05:21:30.967Z,100.00
2023-11-23T05:23:59.550Z,100.00
2023-11-23T05:26:27.636Z,100.00
2023-11-23T05:28:54.200Z,100.00
2023-11-23T05:31:20.697Z,100.00
2023-11-23T05:33:47.225Z,100.00
2023-11-23T05:36:13.838Z,100.00
2023-11-23T05:38:40.338Z,100.00
2023-11-23T05:41:06.916Z,100.00
2023-11-23T05:43:33.390Z,100.00
2023-11-23T05:45:59.911Z,100.00
2023-11-23T05:48:26.577Z,100.00
2023-11-23T05:50:54.095Z,100.00
2023-11-23T05:53:20.647Z,100.00
2023-11-23T05:55:47.267Z,100.00
2023-11-23T05:58:13.807Z,100.00
2023-11-23T06:00:40.571Z,100.00
2023-11-23T06:03:07.115Z,100.00
2023-11-23T06:05:34.015Z,100.00
2023-11-23T06:08:00.603Z,100.00
2023-11-23T06:10:28.369Z,100.00
2023-11-23T06:12:55.045Z,100.00
2023-11-23T06:15:21.622Z,100.00
2023-11-23T06:17:49.390Z,100.00
2023-11-23T06:20:16.244Z,100.00
2023-11-23T06:22:42.745Z,100.00
2023-11-23T06:25:09.263Z,100.00
2023-11-23T06:27:35.791Z,100.00
2023-11-23T06:30:02.689Z,100.00
2023-11-23T06:32:29.355Z,100.00
2023-11-23T06:34:55.833Z,100.00
2023-11-23T06:37:22.301Z,100.00
2023-11-23T06:39:48.947Z,100.00
2023-11-23T06:42:15.472Z,100.00
2023-11-23T06:44:41.996Z,100.00
2023-11-23T06:47:08.501Z,100.00
2023-11-23T06:49:36.276Z,100.00
2023-11-23T06:52:02.950Z,100.00
2023-11-23T06:54:29.579Z,100.00
2023-11-23T06:56:58.348Z,100.00
2023-11-23T06:59:24.956Z,100.00
2023-11-23T07:01:51.687Z,100.00
2023-11-23T07:04:18.244Z,100.00
2023-11-23T07:06:44.779Z,100.00
2023-11-23T07:09:14.434Z,100.00
2023-11-23T07:11:41.556Z,100.00
2023-11-23T07:14:08.351Z,100.00
2023-11-23T07:16:37.373Z,100.00
2023-11-23T07:19:04.018Z,100.00
2023-11-23T07:21:30.779Z,100.00
2023-11-23T07:23:57.613Z,100.00
2023-11-23T07:26:24.369Z,100.00
2023-11-23T07:28:50.901Z,100.00
2023-11-23T07:31:17.864Z,100.00
2023-11-23T07:33:45.928Z,100.00
2023-11-23T07:36:12.695Z,100.00
2023-11-23T07:38:39.269Z,100.00
2023-11-23T07:41:07.741Z,100.00
2023-11-23T07:43:35.010Z,100.00
2023-11-23T07:46:01.618Z,100.00
2023-11-23T07:48:28.518Z,100.00
2023-11-23T07:50:55.190Z,100.00
2023-11-23T07:53:23.292Z,100.00
2023-11-23T07:55:50.421Z,100.00
2023-11-23T07:58:17.317Z,100.00
2023-11-23T08:00:44.298Z,100.00
2023-11-23T08:03:11.428Z,100.00
2023-11-23T08:05:38.353Z,100.00
2023-11-23T08:08:05.173Z,100.00
2023-11-23T08:10:31.813Z,100.00
2023-11-23T08:12:59.616Z,100.00
2023-11-23T08:15:26.541Z,100.00
2023-11-23T08:17:58.759Z,100.00
2023-11-23T08:20:33.389Z,100.00
2023-11-23T08:23:00.311Z,100.00
2023-11-23T08:25:26.966Z,100.00
2023-11-23T08:27:53.471Z,100.00
2023-11-23T08:30:22.804Z,100.00
2023-11-23T08:32:49.829Z,100.00
2023-11-23T08:35:16.371Z,100.00
2023-11-23T08:37:42.892Z,100.00
2023-11-23T08:40:09.864Z,100.00
2023-11-23T08:42:36.343Z,100.00
2023-11-23T08:45:03.082Z,100.00
2023-11-23T08:47:29.755Z,100.00
2023-11-23T08:49:56.808Z,100.00
2023-11-23T08:52:23.754Z,100.00
2023-11-23T08:54:50.325Z,100.00
2023-11-23T08:57:16.945Z,100.00
2023-11-23T08:59:43.561Z,100.00
2023-11-23T09:02:17.482Z,100.00
2023-11-23T09:04:47.714Z,100.00
2023-11-23T09:07:14.580Z,100.00
2023-11-23T09:09:41.363Z,100.00
2023-11-23T09:12:08.524Z,100.00
2023-11-23T09:14:43.248Z,100.00
2023-11-23T09:17:16.068Z,100.00
2023-11-23T09:19:43.165Z,100.00
2023-11-23T09:22:11.829Z,100.00
2023-11-23T09:24:39.431Z,100.00
2023-11-23T09:27:10.885Z,100.00
2023-11-23T09:29:37.778Z,100.00
2023-11-23T09:32:04.892Z,100.00
2023-11-23T09:34:31.544Z,100.00
2023-11-23T09:36:58.060Z,100.00
2023-11-23T09:39:25.085Z,100.00
2023-11-23T09:41:53.158Z,100.00
2023-11-23T09:44:19.911Z,100.00
2023-11-23T09:46:47.550Z,100.00
2023-11-23T09:49:14.384Z,100.00
2023-11-23T09:51:42.870Z,100.00
2023-11-23T09:54:09.753Z,100.00
2023-11-23T09:56:36.347Z,100.00
2023-11-23T09:59:02.895Z,100.00
2023-11-23T10:01:31.967Z,100.00
2023-11-23T10:03:59.592Z,100.00
2023-11-23T10:06:26.772Z,100.00
2023-11-23T10:08:53.382Z,100.00
2023-11-23T10:11:19.902Z,100.00
2023-11-23T10:13:47.488Z,100.00
2023-11-23T10:16:14.098Z,100.00
2023-11-23T10:18:44.857Z,100.00
2023-11-23T10:21:13.962Z,100.00
2023-11-23T10:23:46.904Z,100.00
2023-11-23T10:26:13.442Z,100.00
2023-11-23T10:28:40.021Z,100.00
2023-11-23T10:31:07.189Z,100.00
2023-11-23T10:33:38.070Z,100.00
2023-11-23T10:36:09.927Z,100.00
2023-11-23T10:38:44.152Z,100.00
2023-11-23T10:41:12.944Z,100.00
2023-11-23T10:43:43.325Z,100.00
2023-11-23T10:46:11.211Z,100.00
2023-11-23T10:48:39.449Z,100.00
2023-11-23T10:51:07.410Z,100.00
2023-11-23T10:53:34.220Z,100.00
2023-11-23T10:56:18.972Z,100.00
2023-11-23T10:58:49.270Z,100.00
2023-11-23T11:01:22.696Z,100.00
2023-11-23T11:03:50.630Z,100.00
2023-11-23T11:06:18.976Z,100.00
2023-11-23T11:08:48.672Z,100.00
2023-11-23T11:11:24.188Z,100.00
2023-11-23T11:13:59.292Z,100.00
2023-11-23T11:16:36.276Z,100.00
2023-11-23T11:19:08.029Z,100.00
2023-11-23T11:21:42.706Z,100.00
2023-11-23T11:24:24.860Z,100.00
2023-11-23T11:26:51.566Z,100.00
2023-11-23T11:29:18.613Z,100.00
2023-11-23T11:31:50.600Z,100.00
2023-11-23T11:34:24.040Z,100.00
2023-11-23T11:36:58.437Z,100.00
2023-11-23T11:39:30.244Z,100.00
2023-11-23T11:42:00.864Z,100.00
2023-11-23T11:44:30.438Z,100.00
2023-11-23T11:47:00.662Z,96.49
2023-11-23T11:49:27.943Z,96.06
2023-11-23T11:51:54.831Z,96.98
2023-11-23T11:54:23.122Z,97.31
2023-11-23T11:56:50.852Z,97.58
2023-11-23T11:59:21.494Z,96.24
2023-11-23T12:01:49.342Z,98.47
2023-11-23T12:04:20.492Z,98.26
2023-11-23T12:06:50.125Z,96.38
2023-11-23T12:09:30.960Z,96.96
2023-11-23T12:12:06.220Z,96.21
2023-11-23T12:14:35.351Z,97.10
2023-11-23T12:17:13.034Z,94.66
2023-11-23T12:19:54.131Z,93.77
2023-11-23T12:22:26.616Z,95.01
2023-11-23T12:24:53.849Z,92.97
2023-11-23T12:27:22.282Z,95.00
2023-11-23T12:29:49.973Z,94.22
2023-11-23T12:32:17.890Z,93.14
2023-11-23T12:34:44.563Z,92.41
2023-11-23T12:37:11.134Z,92.95
2023-11-23T12:39:37.684Z,92.98
2023-11-23T12:42:04.615Z,92.36
2023-11-23T12:44:31.167Z,94.50
2023-11-23T12:46:57.635Z,93.60
2023-11-23T12:49:24.156Z,92.53
2023-11-23T12:51:50.696Z,92.21
2023-11-23T12:54:17.293Z,91.24
2023-11-23T12:56:43.840Z,92.29
2023-11-23T12:59:11.482Z,91.42
2023-11-23T13:01:39.629Z,91.26
2023-11-23T13:04:09.096Z,90.02
2023-11-23T13:06:37.542Z,91.33
2023-11-23T13:09:05.355Z,89.48
2023-11-23T13:11:32.757Z,88.37
2023-11-23T13:13:59.524Z,90.83
2023-11-23T13:16:26.276Z,91.65
2023-11-23T13:19:06.458Z,88.93
2023-11-23T13:21:39.867Z,88.19
2023-11-23T13:24:07.789Z,87.04
2023-11-23T13:26:34.980Z,86.67
2023-11-23T13:29:01.618Z,87.69
2023-11-23T13:31:28.854Z,88.31
2023-11-23T13:33:55.761Z,89.70
2023-11-23T13:36:23.784Z,87.95
2023-11-23T13:38:51.585Z,87.92
2023-11-23T13:41:19.697Z,87.61
2023-11-23T13:43:46.358Z,88.11
2023-11-23T13:46:14.032Z,88.19
2023-11-23T13:48:40.713Z,87.88
2023-11-23T13:51:07.437Z,87.67
2023-11-23T13:53:33.961Z,90.08
2023-11-23T13:56:00.656Z,88.91
2023-11-23T13:58:30.887Z,88.73
2023-11-23T14:00:57.436Z,88.95
2023-11-23T14:03:24.087Z,90.40
2023-11-23T14:05:51.719Z,88.76
2023-11-23T14:08:21.162Z,86.01
2023-11-23T14:10:47.829Z,86.04
2023-11-23T14:13:14.453Z,86.26
2023-11-23T14:15:41.099Z,87.54
2023-11-23T14:18:11.264Z,87.62
2023-11-23T14:20:37.905Z,87.99
2023-11-23T14:23:07.281Z,90.19
2023-11-23T14:25:33.816Z,89.71
2023-11-23T14:28:00.661Z,88.41
2023-11-23T14:30:28.601Z,88.39
2023-11-23T14:32:55.353Z,87.42
2023-11-23T14:35:22.755Z,86.89
2023-11-23T14:37:51.192Z,87.89
2023-11-23T14:40:20.176Z,89.49
2023-11-23T14:42:56.140Z,90.19
2023-11-23T14:45:26.211Z,90.73
2023-11-23T14:47:54.391Z,89.77
2023-11-23T14:50:21.232Z,91.04
2023-11-23T14:52:48.249Z,91.29
2023-11-23T14:55:15.764Z,91.28
2023-11-23T14:57:42.843Z,91.56
2023-11-23T15:00:10.717Z,92.49
2023-11-23T15:02:41.432Z,92.60
2023-11-23T15:05:13.408Z,91.57
2023-11-23T15:07:42.835Z,91.68
2023-11-23T15:10:13.321Z,92.94
2023-11-23T15:12:54.268Z,93.26
2023-11-23T15:15:21.986Z,93.77
2023-11-23T15:17:50.598Z,94.62
2023-11-23T15:20:17.874Z,95.86
2023-11-23T15:22:44.450Z,96.27
2023-11-23T15:25:12.078Z,96.54
2023-11-23T15:27:43.867Z,96.03
2023-11-23T15:30:12.664Z,95.55
2023-11-23T15:32:40.397Z,96.67
2023-11-23T15:35:08.631Z,96.54
2023-11-23T15:37:35.710Z,97.59
2023-11-23T15:40:02.339Z,98.24
2023-11-23T15:42:29.031Z,96.96
2023-11-23T15:44:55.571Z,97.13
2023-11-23T15:47:22.097Z,97.09
2023-11-23T15:49:48.644Z,97.57
2023-11-23T15:52:15.253Z,97.46
2023-11-23T15:54:42.196Z,98.47
2023-11-23T15:57:08.805Z,99.07
2023-11-23T15:59:36.965Z,100.00
2023-11-23T16:02:04.900Z,98.98
2023-11-23T16:04:31.737Z,100.00
2023-11-23T16:06:58.640Z,100.00
2023-11-23T16:09:25.459Z,99.41
2023-11-23T16:11:52.428Z,100.00
2023-11-23T16:14:19.012Z,100.00
2023-11-23T16:16:45.869Z,100.00
2023-11-23T16:19:13.227Z,100.00
2023-11-23T16:21:41.507Z,100.00
2023-11-23T16:24:15.167Z,100.00
2023-11-23T16:26:43.663Z,100.00
2023-11-23T16:29:12.303Z,100.00
2023-11-23T16:31:43.612Z,100.00
2023-11-23T16:34:11.082Z,99.17
2023-11-23T16:36:40.414Z,97.46
2023-11-23T16:39:08.450Z,95.59
2023-11-23T16:41:35.336Z,94.99
2023-11-23T16:44:02.183Z,93.93
2023-11-23T16:46:28.935Z,95.13
2023-11-23T16:48:56.006Z,94.65
2023-11-23T16:51:22.816Z,93.50
2023-11-23T16:53:52.177Z,93.87
2023-11-23T16:56:20.383Z,93.72
2023-11-23T16:58:47.084Z,93.46
2023-11-23T17:01:14.139Z,93.04
2023-11-23T17:03:40.734Z,93.19
2023-11-23T17:06:08.595Z,93.32
2023-11-23T17:08:35.324Z,94.18
2023-11-23T17:11:01.904Z,94.65
2023-11-23T17:13:28.449Z,94.19
2023-11-23T17:15:54.926Z,94.28
2023-11-23T17:18:21.775Z,94.67
2023-11-23T17:20:48.381Z,94.54
2023-11-23T17:23:16.089Z,95.22
2023-11-23T17:25:43.293Z,95.94
2023-11-23T17:28:09.899Z,97.51
2023-11-23T17:30:36.726Z,97.41
2023-11-23T17:33:03.773Z,98.92
2023-11-23T17:35:30.763Z,98.58
2023-11-23T17:37:57.654Z,98.85
2023-11-23T17:40:24.758Z,99.08
2023-11-23T17:42:51.587Z,99.80
2023-11-23T17:45:18.483Z,100.00
2023-11-23T17:47:47.936Z,100.00
2023-11-23T17:50:15.499Z,100.00
2023-11-23T17:52:42.871Z,100.00
2023-11-23T17:55:09.853Z,100.00
2023-11-23T17:57:37.116Z,100.00
2023-11-23T18:00:07.466Z,100.00
2023-11-23T18:02:34.801Z,100.00
2023-11-23T18:05:01.570Z,100.00
2023-11-23T18:07:28.157Z,100.00
2023-11-23T18:09:54.896Z,100.00
2023-11-23T18:12:21.593Z,100.00
2023-11-23T18:14:48.314Z,100.00
2023-11-23T18:17:14.893Z,100.00
2023-11-23T18:19:41.713Z,100.00
2023-11-23T18:22:09.407Z,100.00
2023-11-23T18:24:36.961Z,100.00
2023-11-23T18:27:06.161Z,100.00
2023-11-23T18:29:32.962Z,100.00
2023-11-23T18:31:59.981Z,100.00
2023-11-23T18:34:26.738Z,100.00
2023-11-23T18:36:53.251Z,100.00
2023-11-23T18:39:21.423Z,100.00
2023-11-23T18:41:48.462Z,100.00
2023-11-23T18:44:15.182Z,100.00
2023-11-23T18:46:45.451Z,100.00
2023-11-23T18:49:12.888Z,100.00
2023-11-23T18:51:39.731Z,100.00
2023-11-23T18:54:06.450Z,100.00
2023-11-23T18:56:33.028Z,100.00
2023-11-23T18:59:00.261Z,100.00
2023-11-23T19:01:27.247Z,100.00
2023-11-23T19:03:54.222Z,100.00
2023-11-23T19:06:23.465Z,100.00
2023-11-23T19:08:51.165Z,100.00
2023-11-23T19:11:19.349Z,100.00
2023-11-23T19:13:46.114Z,100.00
2023-11-23T19:16:12.817Z,100.00
2023-11-23T19:18:41.557Z,100.00
2023-11-23T19:21:09.731Z,100.00
2023-11-23T19:23:36.939Z,100.00
2023-11-23T19:26:07.053Z,100.00
2023-11-23T19:28:34.309Z,100.00
2023-11-23T19:31:06.345Z,100.00
2023-11-23T19:33:35.584Z,100.00
2023-11-23T19:36:02.864Z,100.00
2023-11-23T19:38:29.656Z,100.00
2023-11-23T19:41:01.200Z,100.00
2023-11-23T19:43:30.329Z,100.00
2023-11-23T19:45:57.500Z,100.00
2023-11-23T19:48:24.773Z,100.00
2023-11-23T19:50:51.679Z,100.00
2023-11-23T19:53:21.544Z,100.00
2023-11-23T19:55:48.094Z,100.00
2023-11-23T19:58:15.710Z,100.00
2023-11-23T20:00:42.750Z,100.00
2023-11-23T20:03:09.670Z,100.00
2023-11-23T20:05:36.219Z,100.00
2023-11-23T20:08:02.985Z,100.00
2023-11-23T20:10:29.883Z,100.00
2023-11-23T20:12:56.464Z,100.00
2023-11-23T20:15:23.026Z,100.00
2023-11-23T20:17:51.092Z,100.00
2023-11-23T20:20:17.807Z,100.00
2023-11-23T20:22:44.489Z,100.00
2023-11-23T20:25:11.191Z,100.00
2023-11-23T20:27:37.867Z,100.00
2023-11-23T20:30:04.920Z,100.00
2023-11-23T20:32:31.953Z,100.00
2023-11-23T20:34:58.531Z,100.00
2023-11-23T20:37:25.150Z,100.00
2023-11-23T20:39:51.778Z,100.00
2023-11-23T20:42:18.341Z,100.00
2023-11-23T20:44:45.052Z,100.00
2023-11-23T20:47:11.695Z,100.00
2023-11-23T20:49:38.204Z,100.00
2023-11-23T20:52:05.047Z,100.00
2023-11-23T20:54:31.717Z,100.00
2023-11-23T20:56:58.732Z,100.00
2023-11-23T20:59:25.738Z,100.00
2023-11-23T21:01:53.215Z,100.00
2023-11-23T21:04:26.140Z,100.00
2023-11-23T21:07:01.507Z,100.00
2023-11-23T21:09:29.576Z,100.00
2023-11-23T21:11:56.375Z,100.00
2023-11-23T21:14:24.452Z,100.00
2023-11-23T21:16:51.156Z,100.00
2023-11-23T21:19:17.818Z,100.00
2023-11-23T21:21:45.201Z,100.00
2023-11-23T21:24:14.003Z,100.00
2023-11-23T21:26:41.549Z,100.00
2023-11-23T21:29:10.492Z,100.00
2023-11-23T21:31:37.638Z,100.00
2023-11-23T21:34:05.071Z,100.00
2023-11-23T21:36:31.935Z,100.00
2023-11-23T21:38:58.491Z,100.00
2023-11-23T21:41:25.043Z,100.00
2023-11-23T21:43:52.048Z,100.00
2023-11-23T21:46:22.339Z,100.00
2023-11-23T21:48:49.519Z,100.00
2023-11-23T21:51:21.387Z,100.00
2023-11-23T21:53:48.451Z,100.00
2023-11-23T21:56:15.029Z,100.00
2023-11-23T21:58:41.834Z,100.00
2023-11-23T22:01:08.487Z,100.00
2023-11-23T22:03:35.124Z,100.00
2023-11-23T22:06:01.953Z,100.00
2023-11-23T22:08:28.434Z,100.00
2023-11-23T22:10:54.912Z,100.00
2023-11-23T22:13:21.478Z,100.00
2023-11-23T22:15:48.035Z,100.00
2023-11-23T22:18:14.830Z,100.00
2023-11-23T22:20:42.611Z,100.00
2023-11-23T22:23:09.439Z,100.00
2023-11-23T22:25:36.237Z,100.00
2023-11-23T22:28:05.160Z,100.00
2023-11-23T22:30:32.905Z,100.00
2023-11-23T22:33:00.955Z,100.00
2023-11-23T22:35:27.862Z,100.00
2023-11-23T22:37:54.906Z,100.00
2023-11-23T22:40:21.959Z,100.00
2023-11-23T22:42:49.418Z,100.00
2023-11-23T22:45:18.275Z,100.00
2023-11-23T22:47:44.980Z,100.00
2023-11-23T22:50:11.576Z,100.00
2023-11-23T22:52:38.126Z,100.00
2023-11-23T22:55:05.074Z,100.00
2023-11-23T22:57:31.657Z,100.00
2023-11-23T22:59:58.580Z,100.00
2023-11-23T23:02:25.215Z,100.00
2023-11-23T23:04:52.458Z,100.00
2023-11-23T23:07:21.846Z,100.00
2023-11-23T23:09:48.509Z,100.00
2023-11-23T23:12:15.292Z,100.00
2023-11-23T23:14:42.005Z,100.00
2023-11-23T23:17:08.611Z,100.00
2023-11-23T23:19:35.119Z,100.00
2023-11-23T23:22:01.808Z,100.00
2023-11-23T23:24:28.372Z,100.00
2023-11-23T23:26:54.973Z,100.00
2023-11-23T23:29:21.718Z,100.00
2023-11-23T23:31:48.350Z,100.00
2023-11-23T23:34:15.486Z,100.00
2023-11-23T23:36:42.424Z,100.00
2023-11-23T23:39:09.058Z,100.00
2023-11-23T23:41:35.598Z,100.00
2023-11-23T23:44:02.778Z,100.00
2023-11-23T23:46:29.699Z,100.00
2023-11-23T23:48:56.338Z,100.00
2023-11-23T23:51:23.254Z,100.00
2023-11-23T23:53:49.890Z,100.00
2023-11-23T23:56:16.441Z,100.00
2023-11-23T23:58:43.801Z,100.00
